Alkor — DBND — position and weather

sailwx.info

Track history (hours):
 
Tides and Currents Weather Stations Pressure Air Temp Water Temp Dewpoint Dewpoint Depression Visibility Wind Speed Wind Dir Waves Ship Positions

Oceanographic research ship Alkor (Germany)

Ship's website: http://www.briese.de/

Detailed information on ship capabilities available from University of Delaware's Ocean Information Center.

Last reported at 2020-Aug-13 10:00 UTC. Time now 2020-Aug-13 11:32 UTC.
Position N 54°20' E 010°11'.

Length 55 m; draft 4.2 m.

Type: Ship. MMSI: 211216512.

Date/timePositionNaut miles runAvg speedWind from/ knotsBaromVisibWave heightAir tempDewpointWater temp
2020-Aug-13 10:00N 54°20' E 010°11'0 0.0
2020-Aug-13 08:30N 54°20' E 010°11'0 0.0
2020-Aug-13 07:30N 54°20' E 010°11'1 0.4
2020-Aug-13 04:56N 54°20' E 010°09'0 0.0
2020-Aug-13 02:59N 54°20' E 010°09'0 0.0
2020-Aug-13 02:29N 54°20' E 010°09'0 0.0
2020-Aug-13 00:29N 54°20' E 010°09'0 0.0
2020-Aug-12 22:59N 54°20' E 010°09'0 0.0
2020-Aug-12 21:29N 54°20' E 010°09'0 0.0
2020-Aug-12 20:50N 54°20' E 010°09'0 0.0
2020-Aug-12 20:26N 54°20' E 010°09'0 0.0
2020-Aug-12 16:53N 54°20' E 010°09'0 0.0
2020-Aug-12 14:59N 54°20' E 010°09'0 0.0
2020-Aug-12 13:56N 54°20' E 010°09'0 0.0
2020-Aug-12 12:29N 54°20' E 010°09'0 0.0
2020-Aug-12 10:29N 54°20' E 010°09'0 0.0
2020-Aug-12 09:59N 54°20' E 010°09'0 0.0
2020-Aug-12 07:59N 54°20' E 010°09'0 0.0
2020-Aug-12 06:29N 54°20' E 010°09'0 0.0
2020-Aug-12 02:53N 54°20' E 010°09'0 0.0
2020-Aug-12 02:29N 54°20' E 010°09'0 0.0
2020-Aug-11 23:29N 54°20' E 010°09'0 0.0
2020-Aug-11 22:59N 54°20' E 010°09'0 0.0
2020-Aug-11 21:26N 54°20' E 010°09'0 0.0
2020-Aug-11 20:59N 54°20' E 010°09'0 0.0
2020-Aug-11 19:59N 54°20' E 010°09'0 0.0
2020-Aug-11 17:29N 54°20' E 010°09'0 0.0
2020-Aug-11 12:50N 54°20' E 010°09'1 0.4
2020-Aug-11 11:20N 54°19' E 010°09'0 0.0
2020-Aug-11 09:53N 54°19' E 010°09'0 0.0
2020-Aug-11 09:23N 54°19' E 010°09'0 0.0
2020-Aug-11 06:56N 54°19' E 010°09'0 0.0
2020-Aug-11 05:56N 54°19' E 010°09'0 0.0
2020-Aug-11 04:56N 54°19' E 010°09'0 0.0
2020-Aug-11 00:59N 54°19' E 010°09'0 0.0
2020-Aug-10 23:59N 54°19' E 010°09'0 0.0
2020-Aug-10 21:29N 54°19' E 010°09'0 0.0
2020-Aug-10 17:53N 54°19' E 010°09'42 7.9
2020-Aug-10 12:30N 54°31' E 011°19'7 2.1
2020-Aug-10 09:00N 54°33' E 011°07'611.8
2020-Aug-10 08:30N 54°33' E 010°57'31 3.8
2020-Aug-10 00:29N 54°20' E 010°09'0 0.0
2020-Aug-09 23:29N 54°20' E 010°09'0 0.0
2020-Aug-09 19:59N 54°20' E 010°09'0 0.0
2020-Aug-09 18:29N 54°20' E 010°09'0 0.0
2020-Aug-09 16:29N 54°20' E 010°09'5 3.6
2020-Aug-09 15:00N 54°25' E 010°12'3012.1
2020-Aug-09 12:31N 54°35' E 011°01'8 5.2
2020-Aug-09 11:00N 54°38' E 010°48'10 6.3
2020-Aug-09 09:30N 54°36' E 010°32'17 8.7
2020-Aug-09 07:30N 54°32' E 010°03'1 2.2
2020-Aug-09 07:00N 54°31' E 010°05'12 7.8
2020-Aug-09 05:30N 54°20' E 010°09'0 0.1
2020-Aug-09 04:27N 54°20' E 010°09'0 0.0
2020-Aug-08 23:27N 54°20' E 010°09'0 0.0
2020-Aug-08 22:30N 54°20' E 010°09'0 0.0
2020-Aug-08 21:30N 54°20' E 010°09'0 0.0
2020-Aug-08 17:30N 54°20' E 010°09'0 0.0
2020-Aug-08 14:21N 54°20' E 010°09'2 1.8
2020-Aug-08 13:01N 54°22' E 010°10'1811.9
2020-Aug-08 11:30N 54°37' E 010°27'5 9.5
2020-Aug-08 11:00N 54°41' E 010°32'12 8.3
2020-Aug-08 09:30N 54°46' E 010°12'4 7.0
2020-Aug-08 09:00N 54°43' E 010°10'1211.1
2020-Aug-08 07:57N 54°32' E 010°03'13 4.3
2020-Aug-08 04:58N 54°20' E 010°09'0 0.0
2020-Aug-08 03:55N 54°20' E 010°09'0 0.0
2020-Aug-08 03:28N 54°20' E 010°09'0 0.0
2020-Aug-08 02:52N 54°20' E 010°09'0 0.0
2020-Aug-08 00:55N 54°20' E 010°09'0 0.0
2020-Aug-07 23:58N 54°20' E 010°09'0 0.0
2020-Aug-07 21:58N 54°20' E 010°09'0 0.0
2020-Aug-07 19:28N 54°20' E 010°09'0 0.1
2020-Aug-07 17:30N 54°20' E 010°09'10 9.8
2020-Aug-07 16:30N 54°28' E 010°19'3112.3
2020-Aug-07 14:00N 54°35' E 011°10'3 2.8
2020-Aug-07 13:00N 54°36' E 011°14'2 3.4
2020-Aug-07 12:30N 54°35' E 011°13'6 2.9
2020-Aug-07 10:30N 54°31' E 011°19'0 0.4
2020-Aug-07 10:00N 54°31' E 011°19'34 9.6
2020-Aug-07 06:30N 54°28' E 010°21'11 7.0
2020-Aug-07 04:58N 54°20' E 010°09'0 0.0
2020-Aug-07 04:28N 54°20' E 010°09'0 0.0
2020-Aug-07 03:58N 54°20' E 010°09'0 0.0
2020-Aug-07 03:28N 54°20' E 010°09'0 0.0
2020-Aug-07 00:58N 54°20' E 010°09'0 0.0
2020-Aug-06 23:28N 54°20' E 010°09'0 0.0
2020-Aug-06 21:25N 54°20' E 010°09'0 0.0
2020-Aug-06 19:52N 54°20' E 010°09'0 0.0
2020-Aug-06 15:58N 54°20' E 010°09'0 0.0
2020-Aug-06 13:28N 54°20' E 010°09'0 0.0
2020-Aug-06 05:52N 54°20' E 010°09'0 0.0
2020-Aug-06 05:22N 54°20' E 010°09'0 0.0
2020-Aug-06 04:28N 54°20' E 010°09'0 0.0
2020-Aug-06 03:55N 54°20' E 010°09'0 0.0
2020-Aug-06 01:55N 54°20' E 010°09'0 0.0
2020-Aug-06 01:28N 54°20' E 010°09'0 0.0
2020-Aug-05 22:28N 54°20' E 010°09'0 0.0
2020-Aug-05 19:58N 54°20' E 010°09'0 0.0
2020-Aug-05 19:31N 54°20' E 010°09'0 0.0
2020-Aug-05 17:18N 54°20' E 010°09'1 0.3
2020-Aug-05 14:00N 54°20' E 010°10'4 4.4
2020-Aug-05 13:00N 54°24' E 010°12'5 9.6
2020-Aug-05 12:30N 54°28' E 010°18'2 0.6
2020-Aug-05 09:30N 54°28' E 010°21'8 2.7
2020-Aug-05 06:30N 54°22' E 010°11'2 1.2
2020-Aug-05 04:28N 54°20' E 010°09'0 0.0
2020-Aug-05 00:28N 54°20' E 010°09'0 0.0
2020-Aug-04 22:22N 54°20' E 010°09'0 0.0
2020-Aug-04 20:52N 54°20' E 010°09'0 0.0
2020-Aug-04 19:49N 54°20' E 010°09'0 0.0
2020-Aug-04 16:55N 54°20' E 010°09'10 1.7
2020-Aug-04 11:00N 54°27' E 010°20'0 0.0
2020-Aug-04 09:30N 54°27' E 010°20'0 0.0
2020-Aug-04 09:00N 54°27' E 010°20'0 0.0
2020-Aug-04 08:30N 54°27' E 010°20'10 2.8
2020-Aug-04 04:54N 54°20' E 010°09'0 0.0
2020-Aug-04 03:54N 54°20' E 010°09'0 0.0
2020-Aug-04 02:54N 54°20' E 010°09'0 0.0
2020-Aug-03 22:30N 54°20' E 010°09'0 0.0
2020-Aug-03 17:30N 54°20' E 010°09'0 0.0
2020-Aug-03 16:30N 54°20' E 010°09'0 0.0
2020-Aug-03 15:21N 54°20' E 010°09'0 0.0
2020-Aug-03 12:54N 54°20' E 010°09'0 0.0
2020-Aug-03 10:57N 54°20' E 010°09'  
Track history (hours):
 
Tides and Currents Weather Stations Pressure Air Temp Water Temp Dewpoint Dewpoint Depression Visibility Wind Speed Wind Dir Waves Ship Positions

Oceanographic research ship Alkor (Germany)

Ship's website: http://www.briese.de/

Detailed information on ship capabilities available from University of Delaware's Ocean Information Center.

Last reported at 2020-Aug-13 10:00 UTC. Time now 2020-Aug-13 11:32 UTC.
Position N 54°20' E 010°11'.

Length 55 m; draft 4.2 m.

Type: Ship. MMSI: 211216512.

Date/timePositionNaut miles runAvg speedWind from/ knotsBaromVisibWave heightAir tempDewpointWater temp
2020-Aug-13 10:00N 54°20' E 010°11'0 0.0
2020-Aug-13 08:30N 54°20' E 010°11'0 0.0
2020-Aug-13 07:30N 54°20' E 010°11'1 0.4
2020-Aug-13 04:56N 54°20' E 010°09'0 0.0
2020-Aug-13 02:59N 54°20' E 010°09'0 0.0
2020-Aug-13 02:29N 54°20' E 010°09'0 0.0
2020-Aug-13 00:29N 54°20' E 010°09'0 0.0
2020-Aug-12 22:59N 54°20' E 010°09'0 0.0
2020-Aug-12 21:29N 54°20' E 010°09'0 0.0
2020-Aug-12 20:50N 54°20' E 010°09'0 0.0
2020-Aug-12 20:26N 54°20' E 010°09'0 0.0
2020-Aug-12 16:53N 54°20' E 010°09'0 0.0
2020-Aug-12 14:59N 54°20' E 010°09'0 0.0
2020-Aug-12 13:56N 54°20' E 010°09'0 0.0
2020-Aug-12 12:29N 54°20' E 010°09'0 0.0
2020-Aug-12 10:29N 54°20' E 010°09'0 0.0
2020-Aug-12 09:59N 54°20' E 010°09'0 0.0
2020-Aug-12 07:59N 54°20' E 010°09'0 0.0
2020-Aug-12 06:29N 54°20' E 010°09'0 0.0
2020-Aug-12 02:53N 54°20' E 010°09'0 0.0
2020-Aug-12 02:29N 54°20' E 010°09'0 0.0
2020-Aug-11 23:29N 54°20' E 010°09'0 0.0
2020-Aug-11 22:59N 54°20' E 010°09'0 0.0
2020-Aug-11 21:26N 54°20' E 010°09'0 0.0
2020-Aug-11 20:59N 54°20' E 010°09'0 0.0
2020-Aug-11 19:59N 54°20' E 010°09'0 0.0
2020-Aug-11 17:29N 54°20' E 010°09'0 0.0
2020-Aug-11 12:50N 54°20' E 010°09'1 0.4
2020-Aug-11 11:20N 54°19' E 010°09'0 0.0
2020-Aug-11 09:53N 54°19' E 010°09'0 0.0
2020-Aug-11 09:23N 54°19' E 010°09'0 0.0
2020-Aug-11 06:56N 54°19' E 010°09'0 0.0
2020-Aug-11 05:56N 54°19' E 010°09'0 0.0
2020-Aug-11 04:56N 54°19' E 010°09'0 0.0
2020-Aug-11 00:59N 54°19' E 010°09'0 0.0
2020-Aug-10 23:59N 54°19' E 010°09'0 0.0
2020-Aug-10 21:29N 54°19' E 010°09'0 0.0
2020-Aug-10 17:53N 54°19' E 010°09'42 7.9
2020-Aug-10 12:30N 54°31' E 011°19'7 2.1
2020-Aug-10 09:00N 54°33' E 011°07'611.8
2020-Aug-10 08:30N 54°33' E 010°57'31 3.8
2020-Aug-10 00:29N 54°20' E 010°09'0 0.0
2020-Aug-09 23:29N 54°20' E 010°09'0 0.0
2020-Aug-09 19:59N 54°20' E 010°09'0 0.0
2020-Aug-09 18:29N 54°20' E 010°09'0 0.0
2020-Aug-09 16:29N 54°20' E 010°09'5 3.6
2020-Aug-09 15:00N 54°25' E 010°12'3012.1
2020-Aug-09 12:31N 54°35' E 011°01'8 5.2
2020-Aug-09 11:00N 54°38' E 010°48'10 6.3
2020-Aug-09 09:30N 54°36' E 010°32'17 8.7
2020-Aug-09 07:30N 54°32' E 010°03'1 2.2
2020-Aug-09 07:00N 54°31' E 010°05'12 7.8
2020-Aug-09 05:30N 54°20' E 010°09'0 0.1
2020-Aug-09 04:27N 54°20' E 010°09'0 0.0
2020-Aug-08 23:27N 54°20' E 010°09'0 0.0
2020-Aug-08 22:30N 54°20' E 010°09'0 0.0
2020-Aug-08 21:30N 54°20' E 010°09'0 0.0
2020-Aug-08 17:30N 54°20' E 010°09'0 0.0
2020-Aug-08 14:21N 54°20' E 010°09'2 1.8
2020-Aug-08 13:01N 54°22' E 010°10'1811.9
2020-Aug-08 11:30N 54°37' E 010°27'5 9.5
2020-Aug-08 11:00N 54°41' E 010°32'12 8.3
2020-Aug-08 09:30N 54°46' E 010°12'4 7.0
2020-Aug-08 09:00N 54°43' E 010°10'1211.1
2020-Aug-08 07:57N 54°32' E 010°03'13 4.3
2020-Aug-08 04:58N 54°20' E 010°09'0 0.0
2020-Aug-08 03:55N 54°20' E 010°09'0 0.0
2020-Aug-08 03:28N 54°20' E 010°09'0 0.0
2020-Aug-08 02:52N 54°20' E 010°09'0 0.0
2020-Aug-08 00:55N 54°20' E 010°09'0 0.0
2020-Aug-07 23:58N 54°20' E 010°09'0 0.0
2020-Aug-07 21:58N 54°20' E 010°09'0 0.0
2020-Aug-07 19:28N 54°20' E 010°09'0 0.1
2020-Aug-07 17:30N 54°20' E 010°09'10 9.8
2020-Aug-07 16:30N 54°28' E 010°19'3112.3
2020-Aug-07 14:00N 54°35' E 011°10'3 2.8
2020-Aug-07 13:00N 54°36' E 011°14'2 3.4
2020-Aug-07 12:30N 54°35' E 011°13'6 2.9
2020-Aug-07 10:30N 54°31' E 011°19'0 0.4
2020-Aug-07 10:00N 54°31' E 011°19'34 9.6
2020-Aug-07 06:30N 54°28' E 010°21'11 7.0
2020-Aug-07 04:58N 54°20' E 010°09'0 0.0
2020-Aug-07 04:28N 54°20' E 010°09'0 0.0
2020-Aug-07 03:58N 54°20' E 010°09'0 0.0
2020-Aug-07 03:28N 54°20' E 010°09'0 0.0
2020-Aug-07 00:58N 54°20' E 010°09'0 0.0
2020-Aug-06 23:28N 54°20' E 010°09'0 0.0
2020-Aug-06 21:25N 54°20' E 010°09'0 0.0
2020-Aug-06 19:52N 54°20' E 010°09'0 0.0
2020-Aug-06 15:58N 54°20' E 010°09'0 0.0
2020-Aug-06 13:28N 54°20' E 010°09'0 0.0
2020-Aug-06 05:52N 54°20' E 010°09'0 0.0
2020-Aug-06 05:22N 54°20' E 010°09'0 0.0
2020-Aug-06 04:28N 54°20' E 010°09'0 0.0
2020-Aug-06 03:55N 54°20' E 010°09'0 0.0
2020-Aug-06 01:55N 54°20' E 010°09'0 0.0
2020-Aug-06 01:28N 54°20' E 010°09'0 0.0
2020-Aug-05 22:28N 54°20' E 010°09'0 0.0
2020-Aug-05 19:58N 54°20' E 010°09'0 0.0
2020-Aug-05 19:31N 54°20' E 010°09'0 0.0
2020-Aug-05 17:18N 54°20' E 010°09'1 0.3
2020-Aug-05 14:00N 54°20' E 010°10'4 4.4
2020-Aug-05 13:00N 54°24' E 010°12'5 9.6
2020-Aug-05 12:30N 54°28' E 010°18'2 0.6
2020-Aug-05 09:30N 54°28' E 010°21'8 2.7
2020-Aug-05 06:30N 54°22' E 010°11'2 1.2
2020-Aug-05 04:28N 54°20' E 010°09'0 0.0
2020-Aug-05 00:28N 54°20' E 010°09'0 0.0
2020-Aug-04 22:22N 54°20' E 010°09'0 0.0
2020-Aug-04 20:52N 54°20' E 010°09'0 0.0
2020-Aug-04 19:49N 54°20' E 010°09'0 0.0
2020-Aug-04 16:55N 54°20' E 010°09'10 1.7
2020-Aug-04 11:00N 54°27' E 010°20'0 0.0
2020-Aug-04 09:30N 54°27' E 010°20'0 0.0
2020-Aug-04 09:00N 54°27' E 010°20'0 0.0
2020-Aug-04 08:30N 54°27' E 010°20'10 2.8
2020-Aug-04 04:54N 54°20' E 010°09'0 0.0
2020-Aug-04 03:54N 54°20' E 010°09'0 0.0
2020-Aug-04 02:54N 54°20' E 010°09'0 0.0
2020-Aug-03 22:30N 54°20' E 010°09'0 0.0
2020-Aug-03 17:30N 54°20' E 010°09'0 0.0
2020-Aug-03 16:30N 54°20' E 010°09'0 0.0
2020-Aug-03 15:21N 54°20' E 010°09'0 0.0
2020-Aug-03 12:54N 54°20' E 010°09'0 0.0
2020-Aug-03 10:57N 54°20' E 010°09'  

Dump ship's entire track history